Time;durP1;ratioP1;P1;durP2;ratioP2;P2;SDS_P1;SDS_P2;PMS_P1;PMS_P2;Temp;Humidity;BMP_temperature;BMP_pressure;BME280_temperature;BME280_humidity;BME280_pressure;Samples;Min_cycle;Max_cycle;Signal;HPM_P1;HPM_P2
2021/01/03 00:01:14;;;;;;;14.18;7.20;;;;;;;4.48;74.27;100018.88;5032795;28;20034;-72
2021/01/03 00:03:39;;;;;;;14.50;7.00;;;;;;;4.55;74.13;100015.06;5033115;28;20489;-71
2021/01/03 00:06:11;;;;;;;13.68;7.15;;;;;;;4.34;74.78;99993.91;5015532;28;20120;-71
2021/01/03 00:08:37;;;;;;;13.25;7.07;;;;;;;4.45;74.24;100021.63;5015801;28;20042;-72
2021/01/03 00:11:02;;;;;;;13.13;7.35;;;;;;;4.34;74.44;100015.88;5033395;28;20034;-71
2021/01/03 00:13:28;;;;;;;13.65;7.30;;;;;;;4.43;74.09;100012.03;5015101;28;20026;-71
2021/01/03 00:15:53;;;;;;;14.85;7.22;;;;;;;4.38;74.36;100006.06;4999308;28;20053;-71
2021/01/03 00:18:19;;;;;;;14.00;7.28;;;;;;;4.34;73.63;99997.41;5015261;28;20400;-70
2021/01/03 00:20:44;;;;;;;12.52;7.35;;;;;;;4.30;74.48;99985.25;5015740;28;20124;-70
2021/01/03 00:23:09;;;;;;;14.25;7.75;;;;;;;4.23;74.40;99999.59;5032627;28;20547;-71
2021/01/03 00:25:35;;;;;;;12.20;6.30;;;;;;;4.29;74.04;100017.84;5015596;28;20124;-70
2021/01/03 00:28:00;;;;;;;13.10;6.72;;;;;;;4.28;73.60;100006.44;5015360;28;20033;-70
2021/01/03 00:30:27;;;;;;;13.35;7.10;;;;;;;4.26;74.03;100015.34;5032634;28;20057;-70
2021/01/03 00:32:54;;;;;;;12.57;6.57;;;;;;;4.05;73.81;99980.03;5032849;28;20021;-69
2021/01/03 00:35:25;;;;;;;11.50;6.40;;;;;;;4.21;74.36;100019.91;5014940;28;20459;-70
2021/01/03 00:37:50;;;;;;;11.90;6.90;;;;;;;4.09;74.98;100015.97;5032896;28;20026;-69
2021/01/03 00:40:20;;;;;;;11.32;6.70;;;;;;;4.12;74.60;100023.75;5032442;28;20099;-71
2021/01/03 00:42:46;;;;;;;13.23;7.18;;;;;;;3.89;74.51;99979.75;5032647;28;20044;-71
2021/01/03 00:45:12;;;;;;;11.77;6.40;;;;;;;4.12;74.44;99999.13;5032359;28;20030;-72
2021/01/03 00:47:38;;;;;;;11.68;6.47;;;;;;;3.77;74.28;99955.63;5032609;28;20033;-71
2021/01/03 00:50:07;;;;;;;13.05;7.13;;;;;;;4.05;74.60;100003.78;5015450;28;20036;-71
2021/01/03 00:52:32;;;;;;;13.00;7.13;;;;;;;3.94;74.31;99996.25;5032135;28;20068;-70
2021/01/03 00:54:58;;;;;;;14.57;7.00;;;;;;;3.95;74.05;99989.22;5032533;28;20049;-71
2021/01/03 00:57:23;;;;;;;13.07;6.75;;;;;;;3.90;74.40;99994.66;4998058;28;20545;-70
2021/01/03 00:59:49;;;;;;;12.05;6.75;;;;;;;3.74;74.03;99972.41;4998691;28;20429;-70
2021/01/03 01:02:14;;;;;;;14.07;7.20;;;;;;;3.94;74.17;99993.63;5032192;28;20040;-72
2021/01/03 01:04:39;;;;;;;11.77;6.60;;;;;;;3.98;73.98;99997.88;5014922;28;20041;-71
2021/01/03 01:07:05;;;;;;;12.68;6.60;;;;;;;4.02;73.50;100010.03;5032675;28;20034;-70
2021/01/03 01:09:30;;;;;;;14.60;6.57;;;;;;;3.97;73.70;100003.22;5014509;28;20376;-71
2021/01/03 01:11:56;;;;;;;13.38;6.90;;;;;;;3.95;73.69;99997.97;5014938;28;20040;-71
2021/01/03 01:14:21;;;;;;;12.13;6.38;;;;;;;3.97;73.33;99987.41;5032263;28;20503;-72
2021/01/03 01:16:47;;;;;;;12.85;6.93;;;;;;;3.56;73.98;99933.50;5014892;28;20061;-71
2021/01/03 01:19:12;;;;;;;14.10;6.78;;;;;;;3.75;74.11;99958.28;5032201;28;20116;-81
2021/01/03 01:21:38;;;;;;;12.13;6.47;;;;;;;3.80;74.03;99979.25;5014729;28;20034;-71
2021/01/03 01:24:04;;;;;;;11.00;6.38;;;;;;;3.85;74.13;99982.56;5014605;28;20457;-71
2021/01/03 01:26:30;;;;;;;12.95;6.78;;;;;;;3.72;74.28;99968.97;5035856;28;20042;-71
2021/01/03 01:28:55;;;;;;;12.35;7.03;;;;;;;3.81;74.29;99984.44;5001870;28;20367;-72
2021/01/03 01:31:20;;;;;;;11.77;6.88;;;;;;;3.80;74.21;99985.38;5018071;28;20033;-70
2021/01/03 01:33:46;;;;;;;11.43;6.35;;;;;;;3.57;74.32;99953.69;5036173;28;20041;-70
2021/01/03 01:36:11;;;;;;;12.52;6.68;;;;;;;3.52;74.43;99960.91;5035905;28;20033;-69
2021/01/03 01:38:37;;;;;;;12.85;6.95;;;;;;;3.65;74.38;99984.13;5035551;28;20355;-69
2021/01/03 01:41:04;;;;;;;13.07;6.95;;;;;;;3.73;74.30;100000.56;5035671;28;20449;-71
2021/01/03 01:43:31;;;;;;;13.68;6.80;;;;;;;3.70;74.03;100002.44;5035520;28;20072;-70
2021/01/03 01:45:57;;;;;;;11.30;6.90;;;;;;;3.67;74.67;100013.13;5018361;28;20069;-72
2021/01/03 01:48:30;;;;;;;11.07;6.40;;;;;;;3.59;74.83;99999.34;5035340;28;20061;-71
2021/01/03 01:50:59;;;;;;;13.85;6.32;;;;;;;3.44;74.43;99984.91;5018096;28;20471;-71
2021/01/03 01:53:35;;;;;;;13.05;6.75;;;;;;;3.55;74.88;100003.84;5035176;28;20033;-71
2021/01/03 01:56:15;;;;;;;12.05;6.90;;;;;;;3.53;75.35;99989.88;5001590;28;20041;-71
2021/01/03 01:58:49;;;;;;;11.55;6.47;;;;;;;3.39;76.01;99986.88;5035512;28;20025;-70
2021/01/03 02:01:20;;;;;;;15.50;7.10;;;;;;;3.35;75.82;99959.72;5035468;28;20033;-70
2021/01/03 02:04:00;;;;;;;12.18;6.68;;;;;;;3.43;75.84;99955.03;5017659;28;20076;-70
2021/01/03 02:06:59;;;;;;;12.88;6.80;;;;;;;3.51;75.44;99960.06;5035540;28;20466;-70
2021/01/03 02:10:17;;;;;;;12.38;6.85;;;;;;;3.51;75.29;99957.41;5017561;28;20140;-70
2021/01/03 02:12:48;;;;;;;13.43;7.13;;;;;;;3.59;74.66;99952.72;5016245;28;20046;-70
2021/01/03 02:15:26;;;;;;;12.27;6.75;;;;;;;3.50;75.11;99952.22;5017840;28;20038;-70
2021/01/03 02:17:52;;;;;;;13.77;6.72;;;;;;;3.47;74.97;99941.75;5035140;28;20036;-71
2021/01/03 02:20:18;;;;;;;13.15;6.65;;;;;;;3.50;74.84;99946.94;5034717;28;20029;-79
2021/01/03 02:22:54;;;;;;;11.52;6.50;;;;;;;3.33;75.12;99926.44;5034964;28;20030;-69
2021/01/03 02:25:20;;;;;;;12.75;6.65;;;;;;;3.41;74.96;99943.69;5034787;28;20032;-70
2021/01/03 02:27:58;;;;;;;12.80;7.35;;;;;;;3.51;74.64;99962.69;5017224;28;20160;-70
2021/01/03 02:30:25;;;;;;;13.40;6.88;;;;;;;3.53;74.30;99965.28;5034314;28;20053;-70
2021/01/03 02:33:05;;;;;;;11.68;6.18;;;;;;;3.57;74.55;99951.03;5034782;28;20112;-71
2021/01/03 02:35:31;;;;;;;11.75;6.35;;;;;;;3.49;74.58;99939.94;5034421;28;20498;-70
2021/01/03 02:37:58;;;;;;;11.32;7.05;;;;;;;3.51;75.09;99951.28;5016968;28;20478;-70
2021/01/03 02:40:25;;;;;;;12.52;6.30;;;;;;;3.56;74.83;99942.28;5000341;28;20529;-71
2021/01/03 02:42:51;;;;;;;11.25;6.05;;;;;;;3.50;74.16;99920.56;5034508;28;20065;-71
2021/01/03 02:45:22;;;;;;;11.65;6.13;;;;;;;3.44;74.76;99919.84;5034649;28;20131;-71
2021/01/03 02:47:48;;;;;;;11.75;6.13;;;;;;;3.38;74.15;99893.72;5034520;28;20061;-71
2021/01/03 02:50:19;;;;;;;10.80;6.25;;;;;;;3.63;73.81;99919.19;5034442;28;20068;-72
2021/01/03 02:52:45;;;;;;;13.32;6.60;;;;;;;3.64;74.05;99918.25;5016912;28;20112;-71
2021/01/03 02:55:13;;;;;;;12.52;6.47;;;;;;;3.66;74.25;99916.41;5016619;28;20120;-70
2021/01/03 02:57:39;;;;;;;11.25;6.00;;;;;;;3.68;73.66;99920.75;5034122;28;20026;-71
2021/01/03 03:00:10;;;;;;;12.32;6.53;;;;;;;3.76;73.70;99914.28;5034662;28;20033;-71
2021/01/03 03:02:36;;;;;;;14.65;6.72;;;;;;;3.80;73.21;99908.88;5000201;28;20376;-71
2021/01/03 03:05:02;;;;;;;13.52;6.78;;;;;;;3.76;73.65;99903.75;5017094;28;20120;-70
2021/01/03 03:07:28;;;;;;;10.57;6.22;;;;;;;3.82;73.48;99907.03;5016563;28;20037;-71
2021/01/03 03:09:53;;;;;;;12.25;5.97;;;;;;;3.85;73.30;99898.97;5016505;28;20029;-70
2021/01/03 03:12:19;;;;;;;13.68;6.63;;;;;;;3.93;72.84;99883.72;4999975;28;20447;-70
2021/01/03 03:14:44;;;;;;;10.27;6.00;;;;;;;3.97;72.60;99863.38;4999775;28;20052;-71
2021/01/03 03:17:10;;;;;;;12.20;5.93;;;;;;;4.02;72.67;99858.75;5034188;28;20036;-71
2021/01/03 03:19:35;;;;;;;10.45;5.63;;;;;;;4.03;72.13;99837.56;4999979;28;20037;-71
2021/01/03 03:22:01;;;;;;;10.52;5.45;;;;;;;3.80;72.19;99786.66;5033872;28;20033;-71
2021/01/03 03:24:26;;;;;;;12.90;5.60;;;;;;;3.99;72.35;99837.78;5033823;28;20038;-71
2021/01/03 03:26:53;;;;;;;10.75;5.95;;;;;;;3.99;73.14;99880.84;5033537;28;20108;-70
2021/01/03 03:29:20;;;;;;;11.02;6.05;;;;;;;3.95;73.16;99892.44;5004246;28;20064;-71
2021/01/03 03:31:45;;;;;;;11.35;6.00;;;;;;;3.79;73.53;99872.00;5052184;28;20029;-71
2021/01/03 03:34:11;;;;;;;9.85;5.75;;;;;;;3.86;73.97;99902.47;5053783;28;20087;-71
2021/01/03 03:36:40;;;;;;;12.98;6.22;;;;;;;3.70;74.77;99875.84;5053185;28;20128;-71
2021/01/03 03:39:06;;;;;;;10.35;5.65;;;;;;;3.85;74.55;99896.34;5052497;28;20455;-72
2021/01/03 03:41:31;;;;;;;11.43;5.95;;;;;;;3.52;75.05;99850.16;5035798;28;20466;-71
2021/01/03 03:43:57;;;;;;;12.43;5.68;;;;;;;3.73;74.94;99887.13;5053746;28;20078;-71
2021/01/03 03:46:22;;;;;;;11.13;6.22;;;;;;;3.81;75.75;99915.84;5035599;28;20430;-70
2021/01/03 03:48:48;;;;;;;12.05;5.72;;;;;;;3.92;74.05;99921.59;5051791;28;20029;-71
2021/01/03 03:51:18;;;;;;;11.75;5.97;;;;;;;3.93;74.24;99901.34;5052281;28;20033;-71
2021/01/03 03:53:44;;;;;;;10.70;6.00;;;;;;;4.16;73.22;99903.09;5035723;28;20036;-72
2021/01/03 03:56:10;;;;;;;10.05;5.15;;;;;;;4.16;72.97;99881.97;5052227;28;20075;-71
2021/01/03 03:58:36;;;;;;;11.30;5.82;;;;;;;4.22;72.44;99884.34;5052310;28;20426;-70
2021/01/03 04:01:02;;;;;;;10.98;5.88;;;;;;;4.28;72.23;99865.63;5052107;28;20067;-72
2021/01/03 04:03:27;;;;;;;11.52;5.60;;;;;;;4.17;71.98;99836.19;5052071;28;20060;-72
2021/01/03 04:05:53;;;;;;;10.07;5.18;;;;;;;4.44;71.71;99869.38;5052039;28;20118;-72
2021/01/03 04:08:18;;;;;;;11.13;5.47;;;;;;;4.24;72.09;99850.81;5053127;28;20032;-72
2021/01/03 04:10:44;;;;;;;10.95;5.75;;;;;;;4.47;71.39;99863.97;5051808;28;20028;-71
2021/01/03 04:13:10;;;;;;;11.27;6.43;;;;;;;4.50;71.60;99878.81;5035402;28;20037;-71
2021/01/03 04:15:35;;;;;;;11.18;5.82;;;;;;;4.50;71.60;99887.59;5053016;28;20509;-70
2021/01/03 04:18:01;;;;;;;10.15;5.63;;;;;;;4.32;72.05;99880.41;5052073;28;20065;-71
2021/01/03 04:20:27;;;;;;;11.05;5.72;;;;;;;4.39;72.74;99897.75;5052981;28;20037;-73
2021/01/03 04:22:52;;;;;;;9.00;5.57;;;;;;;4.19;73.14;99872.16;5051873;28;20049;-72
2021/01/03 04:25:18;;;;;;;11.90;6.00;;;;;;;4.25;72.57;99857.84;5053388;28;20462;-72
2021/01/03 04:27:44;;;;;;;12.52;5.88;;;;;;;4.20;72.00;99843.97;5052675;28;20033;-72
2021/01/03 04:30:11;;;;;;;15.30;6.10;;;;;;;4.39;71.84;99862.56;5051454;28;20049;-72
2021/01/03 04:32:36;;;;;;;11.52;5.97;;;;;;;4.37;71.88;99862.63;5051472;28;20079;-72
2021/01/03 04:35:03;;;;;;;13.57;6.07;;;;;;;4.29;72.21;99852.38;5053043;28;20083;-72
2021/01/03 04:37:28;;;;;;;11.27;5.55;;;;;;;4.32;72.33;99854.88;5051547;28;20143;-72
2021/01/03 04:39:54;;;;;;;10.18;5.78;;;;;;;4.32;72.53;99851.38;5051900;28;20112;-72
2021/01/03 04:42:22;;;;;;;12.40;6.25;;;;;;;4.16;72.92;99823.91;5052956;28;20029;-71
2021/01/03 04:44:59;;;;;;;11.05;5.50;;;;;;;4.42;72.45;99855.34;5052478;28;20497;-71
2021/01/03 04:47:27;;;;;;;10.63;6.03;;;;;;;4.35;72.31;99864.47;5053164;28;20029;-71
2021/01/03 04:50:14;;;;;;;11.00;5.95;;;;;;;4.31;72.74;99854.94;5052553;28;20025;-71
2021/01/03 04:53:10;;;;;;;13.13;5.82;;;;;;;4.16;72.82;99837.09;5052306;28;20029;-72
2021/01/03 04:55:41;;;;;;;10.77;5.85;;;;;;;4.09;72.90;99838.25;5052250;28;20484;-71
2021/01/03 04:58:13;;;;;;;9.95;5.65;;;;;;;4.32;73.06;99890.97;5052673;28;20494;-71
2021/01/03 05:00:53;;;;;;;11.43;5.50;;;;;;;4.21;73.60;99875.56;5053591;28;20122;-71
2021/01/03 05:03:46;;;;;;;11.90;6.68;;;;;;;4.24;73.52;99885.13;5056495;28;20088;-71
2021/01/03 05:06:19;;;;;;;10.47;5.97;;;;;;;4.25;72.86;99882.47;5055362;28;20478;-71
2021/01/03 05:08:48;;;;;;;11.85;7.15;;;;;;;4.28;73.41;99886.75;5038621;28;20091;-71
2021/01/03 05:11:18;;;;;;;14.15;6.43;;;;;;;4.24;73.71;99890.41;5056566;28;20033;-72
2021/01/03 05:13:55;;;;;;;11.15;6.35;;;;;;;4.32;73.16;99891.84;5055060;28;20033;-71
2021/01/03 05:16:22;;;;;;;11.05;5.97;;;;;;;4.33;73.66;99897.97;5056609;28;20035;-72
2021/01/03 05:18:47;;;;;;;9.98;5.93;;;;;;;4.01;73.65;99863.16;5056022;28;20040;-71
2021/01/03 05:21:12;;;;;;;11.85;6.63;;;;;;;4.24;73.67;99896.56;5056135;28;20036;-71
2021/01/03 05:23:40;;;;;;;10.38;5.70;;;;;;;4.23;73.72;99888.72;5038295;28;20037;-71
2021/01/03 05:26:24;;;;;;;11.05;5.95;;;;;;;4.10;73.83;99866.38;5056143;28;20044;-72
2021/01/03 05:28:55;;;;;;;9.60;5.47;;;;;;;4.24;73.87;99885.13;5055681;28;20116;-70
2021/01/03 05:31:23;;;;;;;11.85;6.35;;;;;;;4.25;73.95;99889.53;5036363;28;20034;-71
2021/01/03 05:33:56;;;;;;;12.23;6.05;;;;;;;4.19;74.04;99890.63;5002264;28;20042;-71
2021/01/03 05:36:28;;;;;;;12.30;6.43;;;;;;;4.18;74.16;99898.59;5035928;28;20487;-71
2021/01/03 05:38:54;;;;;;;11.88;6.07;;;;;;;4.13;74.49;99890.00;5018019;28;20255;-70
2021/01/03 05:41:42;;;;;;;10.63;5.63;;;;;;;4.13;74.58;99895.28;5036028;28;20044;-71
2021/01/03 05:44:34;;;;;;;14.40;6.03;;;;;;;4.00;75.16;99885.19;4994777;28;20045;-71
2021/01/03 05:47:05;;;;;;;10.18;6.03;;;;;;;4.15;74.69;99898.72;5024710;28;20394;-71
2021/01/03 05:49:31;;;;;;;12.70;5.75;;;;;;;4.07;74.43;99870.00;5018063;28;20030;-70
2021/01/03 05:52:15;;;;;;;11.18;6.22;;;;;;;4.15;74.71;99888.16;5035379;28;20060;-72
2021/01/03 05:54:41;;;;;;;12.40;6.22;;;;;;;4.16;74.91;99900.44;5017772;28;20111;-71
2021/01/03 05:57:10;;;;;;;12.68;6.47;;;;;;;4.10;74.57;99900.69;5017786;28;20038;-71
2021/01/03 05:59:38;;;;;;;11.77;6.63;;;;;;;4.13;74.66;99905.84;5035091;28;20041;-71
2021/01/03 06:02:21;;;;;;;11.07;5.65;;;;;;;4.08;75.46;99907.81;5035343;28;20033;-71
2021/01/03 06:04:47;;;;;;;10.87;6.00;;;;;;;4.10;74.84;99900.69;5017451;28;20029;-71
2021/01/03 06:07:26;;;;;;;11.30;6.13;;;;;;;4.07;75.13;99895.53;5017858;28;20065;-71
2021/01/03 06:09:52;;;;;;;11.52;6.25;;;;;;;3.97;75.00;99882.69;5034762;28;20032;-71
2021/01/03 06:12:29;;;;;;;11.15;5.80;;;;;;;4.15;74.84;99906.63;5035095;28;20034;-72
2021/01/03 06:15:00;;;;;;;11.23;6.05;;;;;;;4.15;74.32;99901.34;5034770;28;20367;-72
2021/01/03 06:17:44;;;;;;;11.13;6.15;;;;;;;4.10;74.84;99900.69;5035109;28;20259;-72
2021/01/03 06:20:18;;;;;;;;;;;;;;;4.12;74.91;99893.56;5035723;28;20061;-72
2021/01/03 06:22:50;;;;;;;10.20;6.00;;;;;;;4.11;75.10;99889.19;5034672;28;19916;-71
2021/01/03 06:25:24;;;;;;;12.32;6.03;;;;;;;4.00;76.00;99895.75;5035233;28;20033;-72
2021/01/03 06:27:49;;;;;;;10.48;6.07;;;;;;;4.16;75.46;99885.47;5017523;28;20094;-72
2021/01/03 06:30:20;;;;;;;13.10;6.60;;;;;;;4.08;75.65;99882.28;5005165;28;20432;-72
2021/01/03 06:33:11;;;;;;;12.48;6.47;;;;;;;4.05;76.04;99889.44;5055233;28;20379;-71
2021/01/03 06:35:46;;;;;;;10.98;6.25;;;;;;;4.04;75.85;99880.66;5053658;28;20041;-72
2021/01/03 06:38:31;;;;;;;14.68;6.97;;;;;;;4.12;75.97;99902.34;5054042;28;20040;-71
2021/01/03 06:41:04;;;;;;;11.80;6.07;;;;;;;4.09;75.96;99889.28;5054960;28;20108;-71
2021/01/03 06:43:51;;;;;;;13.98;6.10;;;;;;;4.12;75.89;99914.69;5053783;28;20037;-72
2021/01/03 06:46:32;;;;;;;11.18;5.82;;;;;;;4.19;75.85;99917.03;5053382;28;20086;-70
2021/01/03 06:49:21;;;;;;;11.40;6.53;;;;;;;4.17;75.93;99918.88;5052958;28;20033;-71
2021/01/03 06:51:52;;;;;;;11.65;6.63;;;;;;;4.11;76.21;99931.44;5053110;28;20072;-71
2021/01/03 06:54:52;;;;;;;12.50;6.22;;;;;;;4.16;76.26;99933.00;5053703;28;20032;-71
2021/01/03 06:57:53;;;;;;;12.30;6.35;;;;;;;4.00;75.63;99898.41;5054883;28;20037;-72
2021/01/03 07:00:18;;;;;;;12.90;6.38;;;;;;;4.16;75.90;99937.41;5054954;28;20108;-71
2021/01/03 07:02:52;;;;;;;12.70;6.47;;;;;;;4.24;75.53;99940.59;5053080;28;20118;-70
2021/01/03 07:05:18;;;;;;;12.10;6.78;;;;;;;4.02;75.44;99899.19;5054323;28;20102;-70
2021/01/03 07:07:56;;;;;;;12.70;6.80;;;;;;;4.14;75.54;99926.03;5052751;28;20124;-71
2021/01/03 07:10:35;;;;;;;11.13;6.03;;;;;;;4.21;75.92;99930.16;5054041;28;20036;-70
2021/01/03 07:13:01;;;;;;;12.10;6.28;;;;;;;4.23;75.77;99923.88;5053843;28;20386;-70
2021/01/03 07:15:26;;;;;;;12.25;6.82;;;;;;;3.99;75.55;99907.25;5052856;28;20039;-71
2021/01/03 07:17:55;;;;;;;12.30;6.22;;;;;;;4.23;75.81;99949.44;5053653;28;20456;-69
2021/01/03 07:20:52;;;;;;;12.70;6.97;;;;;;;4.14;76.17;99949.78;5053786;28;20025;-71
2021/01/03 07:23:26;;;;;;;14.38;6.97;;;;;;;4.10;76.74;99953.47;5018755;28;20099;-70
2021/01/03 07:26:13;;;;;;;13.25;6.57;;;;;;;4.24;75.75;99952.00;5053348;28;20490;-69
2021/01/03 07:28:45;;;;;;;12.93;6.75;;;;;;;4.25;76.04;99950.25;5053736;28;20031;-77
2021/01/03 07:31:25;;;;;;;11.90;6.60;;;;;;;4.35;75.53;99937.56;5052210;28;20450;-70
2021/01/03 07:34:11;;;;;;;11.63;6.57;;;;;;;4.31;75.96;99955.28;5052512;28;20123;-70
2021/01/03 07:36:47;;;;;;;11.18;6.53;;;;;;;4.36;75.74;99961.25;5052367;28;20119;-69
2021/01/03 07:39:25;;;;;;;14.15;6.70;;;;;;;4.31;75.87;99960.56;5052383;28;20119;-70
2021/01/03 07:42:12;;;;;;;14.75;7.38;;;;;;;4.21;76.15;99946.00;5053445;28;20083;-70
2021/01/03 07:44:39;;;;;;;14.00;6.70;;;;;;;4.26;76.56;99958.13;5052481;28;20033;-70
2021/01/03 07:47:04;;;;;;;13.57;7.07;;;;;;;4.21;76.35;99954.78;5035621;28;20037;-71
2021/01/03 07:55:46;;;;;;;12.57;6.82;;;;;;;4.29;75.93;99959.75;5011674;28;20526;-72
2021/01/03 07:58:17;;;;;;;12.95;6.57;;;;;;;4.30;75.42;99950.91;4994993;28;20026;-71
2021/01/03 08:00:45;;;;;;;11.23;6.35;;;;;;;4.36;75.19;99971.81;5011075;28;20030;-77
2021/01/03 08:03:14;;;;;;;13.27;7.32;;;;;;;4.28;75.71;99948.34;5011352;28;20069;-71
2021/01/03 08:05:42;;;;;;;13.65;7.18;;;;;;;4.24;75.47;99953.78;4994798;28;20030;-71
2021/01/03 08:08:14;;;;;;;12.27;6.88;;;;;;;4.28;75.80;99963.31;5011425;28;20052;-71
2021/01/03 08:10:41;;;;;;;13.20;7.28;;;;;;;4.26;75.94;99975.72;5011384;28;20038;-71
2021/01/03 08:13:14;;;;;;;13.95;7.20;;;;;;;4.30;75.79;99966.75;5011022;28;20053;-70
2021/01/03 08:15:40;;;;;;;12.55;6.45;;;;;;;4.28;75.29;99953.63;5011327;28;20104;-71
2021/01/03 08:18:26;;;;;;;16.98;7.68;;;;;;;4.36;75.34;99966.53;4994661;28;20046;-70
2021/01/03 08:21:03;;;;;;;13.82;7.15;;;;;;;4.42;74.99;99971.56;5010948;28;20034;-71
2021/01/03 08:23:31;;;;;;;13.18;7.05;;;;;;;4.31;75.17;99960.56;5034611;28;20047;-71
2021/01/03 08:26:17;;;;;;;13.55;7.32;;;;;;;4.26;74.99;99942.28;5052787;28;20056;-71
2021/01/03 08:28:55;;;;;;;14.63;7.13;;;;;;;4.54;74.81;99984.28;5051977;28;20442;-70
2021/01/03 08:31:21;;;;;;;13.52;7.30;;;;;;;4.44;75.99;99979.41;5052655;28;20045;-71
2021/01/03 08:33:49;;;;;;;14.27;8.02;;;;;;;4.51;74.85;99973.84;5036797;28;20136;-72
2021/01/03 08:36:17;;;;;;;14.20;7.53;;;;;;;4.65;74.55;99990.94;5059508;28;20032;-70
2021/01/03 08:38:43;;;;;;;13.23;7.45;;;;;;;4.59;75.37;99984.97;5059554;28;20025;-70
2021/01/03 08:41:14;;;;;;;14.02;7.97;;;;;;;4.59;75.36;99984.97;5059390;28;20108;-72
2021/01/03 08:43:42;;;;;;;14.57;8.27;;;;;;;4.65;75.04;99986.50;5059600;28;20071;-70
2021/01/03 08:46:08;;;;;;;15.23;8.38;;;;;;;4.49;74.53;99936.06;5059085;28;20041;-71
2021/01/03 08:48:34;;;;;;;15.60;8.10;;;;;;;4.79;74.39;99980.66;5064916;28;20083;-71
2021/01/03 08:51:10;;;;;;;17.77;8.48;;;;;;;4.99;74.32;100003.63;5057783;28;20075;-73
2021/01/03 08:53:36;;;;;;;15.00;8.38;;;;;;;4.75;74.18;99964.06;5059354;28;20039;-72
2021/01/03 08:56:08;;;;;;;16.08;7.82;;;;;;;4.94;74.49;99985.31;5057830;28;20363;-74
2021/01/03 08:58:39;;;;;;;14.60;7.70;;;;;;;5.02;74.33;99979.69;5057985;28;20032;-72
2021/01/03 09:01:13;;;;;;;14.95;7.95;;;;;;;4.98;74.40;99973.69;5057871;28;20386;-71
2021/01/03 09:03:40;;;;;;;16.52;8.07;;;;;;;5.10;74.11;99991.66;5059485;28;20029;-70
2021/01/03 09:06:08;;;;;;;14.80;8.18;;;;;;;4.99;74.36;99991.25;5057616;28;20090;-71
2021/01/03 09:08:36;;;;;;;16.77;8.18;;;;;;;5.03;74.81;99986.72;5058159;28;20443;-71
2021/01/03 09:11:08;;;;;;;16.52;7.97;;;;;;;5.11;74.79;99985.44;5059015;28;20105;-72
2021/01/03 09:13:43;;;;;;;16.63;8.68;;;;;;;5.23;74.15;99978.81;5059236;28;20028;-69
2021/01/03 09:16:28;;;;;;;15.38;8.20;;;;;;;5.32;74.26;99981.06;5042182;28;20363;-72
2021/01/03 09:19:08;;;;;;;15.35;8.52;;;;;;;5.30;74.37;99982.03;5058925;28;20105;-72
2021/01/03 09:21:34;;;;;;;14.45;8.27;;;;;;;5.31;74.85;99983.78;5066269;28;20091;-71
2021/01/03 09:24:05;;;;;;;16.60;8.73;;;;;;;5.08;75.66;99945.94;5077865;28;20040;-71
2021/01/03 09:26:38;;;;;;;15.98;8.75;;;;;;;5.42;74.69;99976.25;5079492;28;20115;-71
2021/01/03 09:29:13;;;;;;;17.20;8.30;;;;;;;5.49;74.69;99971.53;5075521;28;20036;-71
2021/01/03 09:31:55;;;;;;;17.60;8.63;;;;;;;5.51;75.26;99981.13;5059004;28;20060;-71
2021/01/03 09:34:29;;;;;;;16.27;8.27;;;;;;;5.48;74.74;99968.00;5059187;28;20097;-69
2021/01/03 09:37:13;;;;;;;21.13;9.00;;;;;;;5.55;75.53;99982.69;5058591;28;20063;-71
2021/01/03 09:39:45;;;;;;;18.13;8.70;;;;;;;5.24;75.80;99929.44;5058862;28;20103;-71
2021/01/03 09:42:36;;;;;;;16.83;8.82;;;;;;;5.61;76.49;99990.38;5058454;28;20029;-71
2021/01/03 09:45:32;;;;;;;17.95;9.48;;;;;;;5.63;76.74;99991.16;5057295;28;20033;-74
2021/01/03 09:47:58;;;;;;;19.27;9.40;;;;;;;5.70;75.75;99960.88;5055525;28;20417;-71
2021/01/03 09:50:59;;;;;;;19.60;9.15;;;;;;;5.79;76.09;99977.25;5055446;28;20040;-70
2021/01/03 09:53:31;;;;;;;17.15;9.02;;;;;;;5.86;75.61;99970.75;5038677;28;20040;-70
2021/01/03 09:56:23;;;;;;;17.27;9.18;;;;;;;5.92;75.48;99976.66;5037404;28;20044;-72
2021/01/03 09:58:52;;;;;;;17.55;9.10;;;;;;;5.96;75.21;99966.78;5055693;28;20025;-70
2021/01/03 10:01:34;;;;;;;16.50;8.65;;;;;;;5.87;75.51;99952.16;5037493;28;20036;-70
2021/01/03 10:04:28;;;;;;;16.67;9.07;;;;;;;6.02;75.74;99967.38;5055243;28;20029;-71
2021/01/03 10:07:08;;;;;;;16.92;8.85;;;;;;;5.84;75.58;99935.56;5037265;28;20124;-70
2021/01/03 10:09:34;;;;;;;17.83;9.38;;;;;;;5.99;75.63;99945.50;5055172;28;20028;-71
2021/01/03 10:12:19;;;;;;;16.98;9.40;;;;;;;6.13;75.86;99973.97;5037066;28;20037;-71
2021/01/03 10:14:44;;;;;;;20.40;9.35;;;;;;;6.20;75.32;99976.25;5055399;28;20029;-70
2021/01/03 10:17:18;;;;;;;17.80;9.00;;;;;;;6.11;75.43;99959.94;5055081;28;20095;-70
2021/01/03 10:19:45;;;;;;;17.60;9.57;;;;;;;6.19;75.67;99957.78;5037287;28;20032;-70
2021/01/03 10:22:41;;;;;;;22.67;12.20;;;;;;;6.24;75.66;99961.94;5054856;28;20467;-71
2021/01/03 10:25:15;;;;;;;21.10;9.90;;;;;;;6.21;75.67;99951.50;5050788;28;20475;-72
2021/01/03 10:27:41;;;;;;;19.02;9.82;;;;;;;6.39;75.36;99954.22;5052328;28;20033;-71
2021/01/03 10:30:09;;;;;;;22.00;10.25;;;;;;;6.24;76.43;99956.63;5054206;28;20053;-71
2021/01/03 10:32:36;;;;;;;18.52;10.02;;;;;;;6.38;75.55;99955.13;5036845;28;20035;-71
2021/01/03 10:35:04;;;;;;;16.67;9.40;;;;;;;6.43;75.79;99963.72;5054020;28;20108;-72
2021/01/03 10:37:29;;;;;;;19.65;10.90;;;;;;;6.32;76.42;99949.19;5037261;28;20040;-71
2021/01/03 10:39:55;;;;;;;23.73;10.15;;;;;;;6.33;76.55;99952.69;5054615;28;20390;-85
2021/01/03 10:42:20;;;;;;;23.20;10.98;;;;;;;6.32;76.83;99949.19;5036760;28;20041;-71
2021/01/03 10:44:46;;;;;;;17.30;9.63;;;;;;;6.44;76.59;99946.88;5037027;28;20040;-71
2021/01/03 10:47:11;;;;;;;21.65;10.18;;;;;;;6.40;76.75;99940.03;5020502;28;20033;-71
2021/01/03 10:49:37;;;;;;;19.90;10.05;;;;;;;6.28;76.08;99921.13;5004104;28;20049;-71
2021/01/03 10:52:04;;;;;;;20.38;9.85;;;;;;;6.34;76.59;99927.91;5036751;28;20025;-71
2021/01/03 10:54:30;;;;;;;16.23;9.45;;;;;;;6.22;76.75;99905.53;5054662;28;20033;-70
2021/01/03 10:56:57;;;;;;;17.80;9.75;;;;;;;6.34;77.38;99932.34;5035414;28;20051;-71
2021/01/03 10:59:25;;;;;;;17.88;8.77;;;;;;;6.35;76.45;99918.19;5039930;28;20033;-70
2021/01/03 11:01:51;;;;;;;20.70;10.05;;;;;;;6.38;76.75;99915.41;5054392;28;20474;-70
2021/01/03 11:04:19;;;;;;;18.70;9.50;;;;;;;6.50;76.83;99920.09;5031045;28;20032;-71
2021/01/03 11:06:49;;;;;;;15.50;8.18;;;;;;;6.47;76.52;99907.00;5036258;28;20607;-73
2021/01/03 11:09:17;;;;;;;17.42;9.27;;;;;;;6.57;76.63;99913.56;5052858;28;20025;-72
2021/01/03 11:11:43;;;;;;;18.10;9.13;;;;;;;6.54;77.04;99919.84;5035123;28;20425;-74
2021/01/03 11:14:09;;;;;;;19.40;9.48;;;;;;;6.63;76.72;99926.50;5018907;28;20363;-72
2021/01/03 11:16:38;;;;;;;16.73;10.10;;;;;;;6.57;76.63;99910.94;5053231;28;20040;-72
2021/01/03 11:19:06;;;;;;;20.02;10.65;;;;;;;6.57;76.65;99901.19;5034539;28;20102;-73
2021/01/03 11:21:32;;;;;;;18.38;9.80;;;;;;;6.52;77.10;99912.94;5053311;28;20083;-74
2021/01/03 11:23:57;;;;;;;17.75;9.90;;;;;;;6.60;77.05;99908.13;5052757;28;20029;-74
2021/01/03 11:26:32;;;;;;;20.17;10.23;;;;;;;6.58;77.49;99917.94;5035197;28;20041;-75
2021/01/03 11:28:59;;;;;;;20.52;9.90;;;;;;;6.71;78.10;99912.88;5052160;28;20509;-74
2021/01/03 11:31:42;;;;;;;23.90;11.63;;;;;;;6.59;77.79;99896.66;5034969;28;20110;-72
2021/01/03 11:34:10;;;;;;;20.65;10.02;;;;;;;6.73;77.18;99895.09;5044818;28;20106;-73
2021/01/03 11:36:37;;;;;;;19.20;10.20;;;;;;;6.69;77.06;99899.72;5034445;28;20047;-80
2021/01/03 11:39:07;;;;;;;21.65;10.23;;;;;;;6.76;76.28;99879.91;5015276;28;20049;-74
2021/01/03 11:41:33;;;;;;;19.83;9.68;;;;;;;6.79;76.11;99869.16;5030937;28;20110;-75
2021/01/03 11:43:59;;;;;;;18.33;9.70;;;;;;;6.84;76.38;99869.75;5003521;28;20087;-73
2021/01/03 11:46:24;;;;;;;19.65;10.10;;;;;;;6.92;76.29;99876.47;5014806;28;20034;-79
2021/01/03 11:48:50;;;;;;;16.10;9.05;;;;;;;7.03;76.39;99892.69;5007440;28;20475;-75
2021/01/03 11:51:17;;;;;;;23.48;10.32;;;;;;;6.91;78.56;99866.81;5014362;28;20387;-75
2021/01/03 11:53:42;;;;;;;20.85;10.00;;;;;;;6.91;78.43;99850.91;5048852;28;20045;-76
2021/01/03 11:56:08;;;;;;;20.27;10.07;;;;;;;7.12;77.57;99894.88;5038402;28;20037;-77